sensor_id;sensor_type;location;lat;lon;timestamp;temperature;humidity
53045;DHT22;38930;52.766;6.884;2023-09-07T00:01:48;19.70;99.90
53045;DHT22;38930;52.766;6.884;2023-09-07T00:04:14;19.70;99.90
53045;DHT22;38930;52.766;6.884;2023-09-07T00:06:40;19.70;99.90
53045;DHT22;38930;52.766;6.884;2023-09-07T00:09:09;19.70;99.90
53045;DHT22;38930;52.766;6.884;2023-09-07T00:11:37;19.60;99.90
53045;DHT22;38930;52.766;6.884;2023-09-07T00:14:02;19.60;99.90
53045;DHT22;38930;52.766;6.884;2023-09-07T00:16:28;19.60;99.90
53045;DHT22;38930;52.766;6.884;2023-09-07T00:18:54;19.60;99.90
53045;DHT22;38930;52.766;6.884;2023-09-07T00:21:19;19.60;99.90
53045;DHT22;38930;52.766;6.884;2023-09-07T00:23:45;19.50;99.90
53045;DHT22;38930;52.766;6.884;2023-09-07T00:26:11;19.50;99.90
53045;DHT22;38930;52.766;6.884;2023-09-07T00:28:38;19.50;99.90
53045;DHT22;38930;52.766;6.884;2023-09-07T00:31:04;19.50;99.90
53045;DHT22;38930;52.766;6.884;2023-09-07T00:33:29;19.40;99.90
53045;DHT22;38930;52.766;6.884;2023-09-07T00:35:55;19.40;99.90
53045;DHT22;38930;52.766;6.884;2023-09-07T00:38:21;19.40;99.90
53045;DHT22;38930;52.766;6.884;2023-09-07T00:40:46;19.30;99.90
53045;DHT22;38930;52.766;6.884;2023-09-07T00:43:12;19.30;99.90
53045;DHT22;38930;52.766;6.884;2023-09-07T00:45:39;19.20;99.90
53045;DHT22;38930;52.766;6.884;2023-09-07T00:48:05;19.30;99.90
53045;DHT22;38930;52.766;6.884;2023-09-07T00:50:31;19.20;99.90
53045;DHT22;38930;52.766;6.884;2023-09-07T00:52:58;19.20;99.90
53045;DHT22;38930;52.766;6.884;2023-09-07T00:55:25;19.10;99.90
53045;DHT22;38930;52.766;6.884;2023-09-07T00:57:51;19.10;99.90
53045;DHT22;38930;52.766;6.884;2023-09-07T01:00:17;19.10;99.90
53045;DHT22;38930;52.766;6.884;2023-09-07T01:02:43;19.00;99.90
53045;DHT22;38930;52.766;6.884;2023-09-07T01:05:11;19.00;99.90
53045;DHT22;38930;52.766;6.884;2023-09-07T01:07:58;19.00;99.90
53045;DHT22;38930;52.766;6.884;2023-09-07T01:10:25;19.00;99.90
53045;DHT22;38930;52.766;6.884;2023-09-07T01:12:51;19.00;99.90
53045;DHT22;38930;52.766;6.884;2023-09-07T01:15:16;18.90;99.90
53045;DHT22;38930;52.766;6.884;2023-09-07T01:17:43;18.90;99.90
53045;DHT22;38930;52.766;6.884;2023-09-07T01:20:09;18.90;99.90
53045;DHT22;38930;52.766;6.884;2023-09-07T01:22:38;18.90;99.90
53045;DHT22;38930;52.766;6.884;2023-09-07T01:25:05;18.80;99.90
53045;DHT22;38930;52.766;6.884;2023-09-07T01:27:33;18.80;99.90
53045;DHT22;38930;52.766;6.884;2023-09-07T01:29:58;18.80;99.90
53045;DHT22;38930;52.766;6.884;2023-09-07T01:32:24;18.80;99.90
53045;DHT22;38930;52.766;6.884;2023-09-07T01:34:57;18.80;99.90
53045;DHT22;38930;52.766;6.884;2023-09-07T01:37:23;18.80;99.90
53045;DHT22;38930;52.766;6.884;2023-09-07T01:39:48;18.70;99.90
53045;DHT22;38930;52.766;6.884;2023-09-07T01:42:15;18.70;99.90
53045;DHT22;38930;52.766;6.884;2023-09-07T01:44:41;18.70;99.90
53045;DHT22;38930;52.766;6.884;2023-09-07T01:47:07;18.60;99.90
53045;DHT22;38930;52.766;6.884;2023-09-07T01:49:32;18.60;99.90
53045;DHT22;38930;52.766;6.884;2023-09-07T01:51:58;18.60;99.90
53045;DHT22;38930;52.766;6.884;2023-09-07T01:54:23;18.50;99.90
53045;DHT22;38930;52.766;6.884;2023-09-07T01:56:49;18.50;99.90
53045;DHT22;38930;52.766;6.884;2023-09-07T01:59:15;18.40;99.90
53045;DHT22;38930;52.766;6.884;2023-09-07T02:01:40;18.40;99.90
53045;DHT22;38930;52.766;6.884;2023-09-07T02:04:06;18.40;99.90
53045;DHT22;38930;52.766;6.884;2023-09-07T02:06:32;18.40;99.90
53045;DHT22;38930;52.766;6.884;2023-09-07T02:08:57;18.40;99.90
53045;DHT22;38930;52.766;6.884;2023-09-07T02:11:23;18.40;99.90
53045;DHT22;38930;52.766;6.884;2023-09-07T02:13:49;18.40;99.90
53045;DHT22;38930;52.766;6.884;2023-09-07T02:16:15;18.40;99.90
53045;DHT22;38930;52.766;6.884;2023-09-07T02:18:42;18.40;99.90
53045;DHT22;38930;52.766;6.884;2023-09-07T02:21:12;18.30;99.90
53045;DHT22;38930;52.766;6.884;2023-09-07T02:23:38;18.30;99.90
53045;DHT22;38930;52.766;6.884;2023-09-07T02:26:04;18.30;99.90
53045;DHT22;38930;52.766;6.884;2023-09-07T02:28:30;18.30;99.90
53045;DHT22;38930;52.766;6.884;2023-09-07T02:31:03;18.30;99.90
53045;DHT22;38930;52.766;6.884;2023-09-07T02:33:29;18.20;99.90
53045;DHT22;38930;52.766;6.884;2023-09-07T02:35:54;18.20;99.90
53045;DHT22;38930;52.766;6.884;2023-09-07T02:38:21;18.20;99.90
53045;DHT22;38930;52.766;6.884;2023-09-07T02:40:46;18.20;99.90
53045;DHT22;38930;52.766;6.884;2023-09-07T02:43:12;18.10;99.90
53045;DHT22;38930;52.766;6.884;2023-09-07T02:45:38;18.10;99.90
53045;DHT22;38930;52.766;6.884;2023-09-07T02:48:05;18.10;99.90
53045;DHT22;38930;52.766;6.884;2023-09-07T02:50:33;18.10;99.90
53045;DHT22;38930;52.766;6.884;2023-09-07T02:53:00;18.10;99.90
53045;DHT22;38930;52.766;6.884;2023-09-07T02:55:29;18.00;99.90
53045;DHT22;38930;52.766;6.884;2023-09-07T02:57:56;18.00;99.90
53045;DHT22;38930;52.766;6.884;2023-09-07T03:00:22;17.90;99.90
53045;DHT22;38930;52.766;6.884;2023-09-07T03:02:48;18.00;99.90
53045;DHT22;38930;52.766;6.884;2023-09-07T03:05:17;17.90;99.90
53045;DHT22;38930;52.766;6.884;2023-09-07T03:07:45;17.90;99.90
53045;DHT22;38930;52.766;6.884;2023-09-07T03:10:11;17.90;99.90
53045;DHT22;38930;52.766;6.884;2023-09-07T03:12:37;17.80;99.90
53045;DHT22;38930;52.766;6.884;2023-09-07T03:15:04;17.80;99.90
53045;DHT22;38930;52.766;6.884;2023-09-07T03:17:30;17.80;99.90
53045;DHT22;38930;52.766;6.884;2023-09-07T03:19:55;17.80;99.90
53045;DHT22;38930;52.766;6.884;2023-09-07T03:22:22;17.80;99.90
53045;DHT22;38930;52.766;6.884;2023-09-07T03:24:50;17.80;99.90
53045;DHT22;38930;52.766;6.884;2023-09-07T03:27:16;17.70;99.90
53045;DHT22;38930;52.766;6.884;2023-09-07T03:29:43;17.70;99.90
53045;DHT22;38930;52.766;6.884;2023-09-07T03:32:09;17.60;99.90
53045;DHT22;38930;52.766;6.884;2023-09-07T03:34:35;17.60;99.90
53045;DHT22;38930;52.766;6.884;2023-09-07T03:37:00;17.60;99.90
53045;DHT22;38930;52.766;6.884;2023-09-07T03:39:26;17.60;99.90
53045;DHT22;38930;52.766;6.884;2023-09-07T03:41:52;17.60;99.90
53045;DHT22;38930;52.766;6.884;2023-09-07T03:44:18;17.50;99.90
53045;DHT22;38930;52.766;6.884;2023-09-07T03:46:44;17.50;99.90
53045;DHT22;38930;52.766;6.884;2023-09-07T03:49:09;17.50;99.90
53045;DHT22;38930;52.766;6.884;2023-09-07T03:51:35;17.50;99.90
53045;DHT22;38930;52.766;6.884;2023-09-07T03:54:01;17.50;99.90
53045;DHT22;38930;52.766;6.884;2023-09-07T03:56:27;17.40;99.90
53045;DHT22;38930;52.766;6.884;2023-09-07T03:58:52;17.40;99.90
53045;DHT22;38930;52.766;6.884;2023-09-07T04:01:18;17.40;99.90
53045;DHT22;38930;52.766;6.884;2023-09-07T04:03:44;17.40;99.90
53045;DHT22;38930;52.766;6.884;2023-09-07T04:06:09;17.30;99.90
53045;DHT22;38930;52.766;6.884;2023-09-07T04:08:35;17.30;99.90
53045;DHT22;38930;52.766;6.884;2023-09-07T04:11:05;17.30;99.90
53045;DHT22;38930;52.766;6.884;2023-09-07T04:13:31;17.30;99.90
53045;DHT22;38930;52.766;6.884;2023-09-07T04:15:56;17.30;99.90
53045;DHT22;38930;52.766;6.884;2023-09-07T04:18:22;17.20;99.90
53045;DHT22;38930;52.766;6.884;2023-09-07T04:20:48;17.30;99.90
53045;DHT22;38930;52.766;6.884;2023-09-07T04:23:13;17.20;99.90
53045;DHT22;38930;52.766;6.884;2023-09-07T04:25:39;17.20;99.90
53045;DHT22;38930;52.766;6.884;2023-09-07T04:28:05;17.10;99.90
53045;DHT22;38930;52.766;6.884;2023-09-07T04:30:38;17.10;99.90
53045;DHT22;38930;52.766;6.884;2023-09-07T04:33:04;17.10;99.90
53045;DHT22;38930;52.766;6.884;2023-09-07T04:35:30;17.10;99.90
53045;DHT22;38930;52.766;6.884;2023-09-07T04:37:56;17.10;99.90
53045;DHT22;38930;52.766;6.884;2023-09-07T04:40:23;17.10;99.90
53045;DHT22;38930;52.766;6.884;2023-09-07T04:42:49;17.10;99.90
53045;DHT22;38930;52.766;6.884;2023-09-07T04:45:15;17.10;99.90
53045;DHT22;38930;52.766;6.884;2023-09-07T04:47:40;17.00;99.90
53045;DHT22;38930;52.766;6.884;2023-09-07T04:50:06;17.00;99.90
53045;DHT22;38930;52.766;6.884;2023-09-07T04:52:32;17.00;99.90
53045;DHT22;38930;52.766;6.884;2023-09-07T04:54:58;17.00;99.90
53045;DHT22;38930;52.766;6.884;2023-09-07T04:57:23;16.90;99.90
53045;DHT22;38930;52.766;6.884;2023-09-07T04:59:49;16.90;99.90
53045;DHT22;38930;52.766;6.884;2023-09-07T05:02:15;16.90;99.90
53045;DHT22;38930;52.766;6.884;2023-09-07T05:04:40;16.90;99.90
53045;DHT22;38930;52.766;6.884;2023-09-07T05:07:06;16.90;99.90
53045;DHT22;38930;52.766;6.884;2023-09-07T05:09:32;16.90;99.90
53045;DHT22;38930;52.766;6.884;2023-09-07T05:11:58;17.10;99.90
53045;DHT22;38930;52.766;6.884;2023-09-07T05:14:24;16.90;99.90
53045;DHT22;38930;52.766;6.884;2023-09-07T05:16:50;16.90;99.90
53045;DHT22;38930;52.766;6.884;2023-09-07T05:19:16;16.90;99.90
53045;DHT22;38930;52.766;6.884;2023-09-07T05:21:42;16.90;99.90
53045;DHT22;38930;52.766;6.884;2023-09-07T05:24:07;16.90;99.90
53045;DHT22;38930;52.766;6.884;2023-09-07T05:26:33;16.90;99.90
53045;DHT22;38930;52.766;6.884;2023-09-07T05:28:59;16.90;99.90
53045;DHT22;38930;52.766;6.884;2023-09-07T05:31:24;16.90;99.90
53045;DHT22;38930;52.766;6.884;2023-09-07T05:33:50;17.00;99.90
53045;DHT22;38930;52.766;6.884;2023-09-07T05:36:17;17.00;99.90
53045;DHT22;38930;52.766;6.884;2023-09-07T05:38:42;17.00;99.90
53045;DHT22;38930;52.766;6.884;2023-09-07T05:41:08;17.00;99.90
53045;DHT22;38930;52.766;6.884;2023-09-07T05:43:34;17.00;99.90
53045;DHT22;38930;52.766;6.884;2023-09-07T05:45:59;17.00;99.90
53045;DHT22;38930;52.766;6.884;2023-09-07T05:48:25;17.00;99.90
53045;DHT22;38930;52.766;6.884;2023-09-07T05:50:51;17.10;99.90
53045;DHT22;38930;52.766;6.884;2023-09-07T05:53:18;17.10;99.90
53045;DHT22;38930;52.766;6.884;2023-09-07T05:55:44;17.10;99.90
53045;DHT22;38930;52.766;6.884;2023-09-07T05:58:10;17.20;99.90
53045;DHT22;38930;52.766;6.884;2023-09-07T06:00:36;17.20;99.90
53045;DHT22;38930;52.766;6.884;2023-09-07T06:03:04;17.20;99.90
53045;DHT22;38930;52.766;6.884;2023-09-07T06:05:30;17.20;99.90
53045;DHT22;38930;52.766;6.884;2023-09-07T06:07:56;17.20;99.90
53045;DHT22;38930;52.766;6.884;2023-09-07T06:10:22;17.20;99.90
53045;DHT22;38930;52.766;6.884;2023-09-07T06:12:47;17.30;99.90
53045;DHT22;38930;52.766;6.884;2023-09-07T06:15:13;17.30;99.90
53045;DHT22;38930;52.766;6.884;2023-09-07T06:17:39;17.30;99.90
53045;DHT22;38930;52.766;6.884;2023-09-07T06:20:05;17.30;99.90
53045;DHT22;38930;52.766;6.884;2023-09-07T06:22:31;17.40;99.90
53045;DHT22;38930;52.766;6.884;2023-09-07T06:24:57;17.40;99.90
53045;DHT22;38930;52.766;6.884;2023-09-07T06:27:22;17.50;99.90
53045;DHT22;38930;52.766;6.884;2023-09-07T06:29:49;17.60;99.90
53045;DHT22;38930;52.766;6.884;2023-09-07T06:32:14;17.60;99.90
53045;DHT22;38930;52.766;6.884;2023-09-07T06:34:40;17.70;99.90
53045;DHT22;38930;52.766;6.884;2023-09-07T06:37:06;17.70;99.90
53045;DHT22;38930;52.766;6.884;2023-09-07T06:39:32;17.90;99.90
53045;DHT22;38930;52.766;6.884;2023-09-07T06:41:58;17.90;99.90
53045;DHT22;38930;52.766;6.884;2023-09-07T06:44:24;18.10;99.90
53045;DHT22;38930;52.766;6.884;2023-09-07T06:46:49;18.20;99.90
53045;DHT22;38930;52.766;6.884;2023-09-07T06:49:15;18.40;99.90
53045;DHT22;38930;52.766;6.884;2023-09-07T06:51:41;18.50;99.90
53045;DHT22;38930;52.766;6.884;2023-09-07T06:54:06;18.60;99.90
53045;DHT22;38930;52.766;6.884;2023-09-07T06:56:32;18.70;99.90
53045;DHT22;38930;52.766;6.884;2023-09-07T06:59:00;18.90;99.90
53045;DHT22;38930;52.766;6.884;2023-09-07T07:01:26;19.00;99.90
53045;DHT22;38930;52.766;6.884;2023-09-07T07:03:51;19.20;99.90
53045;DHT22;38930;52.766;6.884;2023-09-07T07:06:18;19.30;99.90
53045;DHT22;38930;52.766;6.884;2023-09-07T07:08:44;19.40;99.90
53045;DHT22;38930;52.766;6.884;2023-09-07T07:11:09;19.50;99.90
53045;DHT22;38930;52.766;6.884;2023-09-07T07:13:35;19.60;99.90
53045;DHT22;38930;52.766;6.884;2023-09-07T07:16:02;19.80;99.90
53045;DHT22;38930;52.766;6.884;2023-09-07T07:18:29;19.90;99.90
53045;DHT22;38930;52.766;6.884;2023-09-07T07:20:55;20.00;99.90
53045;DHT22;38930;52.766;6.884;2023-09-07T07:23:20;20.10;99.90
53045;DHT22;38930;52.766;6.884;2023-09-07T07:25:46;20.20;99.90
53045;DHT22;38930;52.766;6.884;2023-09-07T07:28:12;20.30;99.90
53045;DHT22;38930;52.766;6.884;2023-09-07T07:30:39;20.50;99.90
53045;DHT22;38930;52.766;6.884;2023-09-07T07:33:08;20.60;99.90
53045;DHT22;38930;52.766;6.884;2023-09-07T07:35:35;20.70;99.90
53045;DHT22;38930;52.766;6.884;2023-09-07T07:38:05;20.80;99.90
53045;DHT22;38930;52.766;6.884;2023-09-07T07:40:31;21.00;99.90
53045;DHT22;38930;52.766;6.884;2023-09-07T07:42:57;21.10;99.90
53045;DHT22;38930;52.766;6.884;2023-09-07T07:45:22;21.20;99.90
53045;DHT22;38930;52.766;6.884;2023-09-07T07:47:49;21.20;99.90
53045;DHT22;38930;52.766;6.884;2023-09-07T07:50:15;21.40;99.90
53045;DHT22;38930;52.766;6.884;2023-09-07T07:52:41;21.50;99.90
53045;DHT22;38930;52.766;6.884;2023-09-07T07:55:09;21.60;99.90
53045;DHT22;38930;52.766;6.884;2023-09-07T07:57:35;21.70;99.90
53045;DHT22;38930;52.766;6.884;2023-09-07T08:00:01;21.80;99.90
53045;DHT22;38930;52.766;6.884;2023-09-07T08:02:29;21.90;99.90
53045;DHT22;38930;52.766;6.884;2023-09-07T08:04:55;22.00;99.90
53045;DHT22;38930;52.766;6.884;2023-09-07T08:07:20;22.10;99.90
53045;DHT22;38930;52.766;6.884;2023-09-07T08:09:46;22.20;99.90
53045;DHT22;38930;52.766;6.884;2023-09-07T08:12:12;22.30;99.90
53045;DHT22;38930;52.766;6.884;2023-09-07T08:14:38;22.40;99.90
53045;DHT22;38930;52.766;6.884;2023-09-07T08:17:03;22.50;99.90
53045;DHT22;38930;52.766;6.884;2023-09-07T08:19:29;22.60;99.90
53045;DHT22;38930;52.766;6.884;2023-09-07T08:21:55;22.60;99.90
53045;DHT22;38930;52.766;6.884;2023-09-07T08:24:21;22.80;99.90
53045;DHT22;38930;52.766;6.884;2023-09-07T08:26:46;22.80;99.90
53045;DHT22;38930;52.766;6.884;2023-09-07T08:29:17;23.00;99.90
53045;DHT22;38930;52.766;6.884;2023-09-07T08:31:42;23.00;99.90
53045;DHT22;38930;52.766;6.884;2023-09-07T08:34:10;23.10;99.90
53045;DHT22;38930;52.766;6.884;2023-09-07T08:36:37;23.20;99.90
53045;DHT22;38930;52.766;6.884;2023-09-07T08:39:04;23.30;99.90
53045;DHT22;38930;52.766;6.884;2023-09-07T08:41:42;23.40;99.90
53045;DHT22;38930;52.766;6.884;2023-09-07T08:44:17;23.50;99.90
53045;DHT22;38930;52.766;6.884;2023-09-07T08:46:45;23.60;99.90
53045;DHT22;38930;52.766;6.884;2023-09-07T08:49:11;23.70;99.90
53045;DHT22;38930;52.766;6.884;2023-09-07T08:51:38;23.70;99.90
53045;DHT22;38930;52.766;6.884;2023-09-07T08:54:04;23.90;99.90
53045;DHT22;38930;52.766;6.884;2023-09-07T08:56:30;23.90;99.90
53045;DHT22;38930;52.766;6.884;2023-09-07T08:58:57;24.10;99.90
53045;DHT22;38930;52.766;6.884;2023-09-07T09:01:23;24.10;99.90
53045;DHT22;38930;52.766;6.884;2023-09-07T09:03:52;24.20;99.90
53045;DHT22;38930;52.766;6.884;2023-09-07T09:06:19;24.30;99.90
53045;DHT22;38930;52.766;6.884;2023-09-07T09:08:58;24.40;99.90
53045;DHT22;38930;52.766;6.884;2023-09-07T09:11:25;24.50;99.90
53045;DHT22;38930;52.766;6.884;2023-09-07T09:13:52;24.60;99.90
53045;DHT22;38930;52.766;6.884;2023-09-07T09:16:18;24.60;99.90
53045;DHT22;38930;52.766;6.884;2023-09-07T09:18:55;24.70;99.90
53045;DHT22;38930;52.766;6.884;2023-09-07T09:21:24;24.70;99.90
53045;DHT22;38930;52.766;6.884;2023-09-07T09:23:52;24.80;99.90
53045;DHT22;38930;52.766;6.884;2023-09-07T09:26:18;24.90;99.90
53045;DHT22;38930;52.766;6.884;2023-09-07T09:28:44;24.90;99.90
53045;DHT22;38930;52.766;6.884;2023-09-07T09:31:10;25.00;99.90
53045;DHT22;38930;52.766;6.884;2023-09-07T09:33:41;25.10;99.90
53045;DHT22;38930;52.766;6.884;2023-09-07T09:36:08;25.10;99.90
53045;DHT22;38930;52.766;6.884;2023-09-07T09:38:34;25.30;99.90
53045;DHT22;38930;52.766;6.884;2023-09-07T09:41:00;25.40;99.90
53045;DHT22;38930;52.766;6.884;2023-09-07T09:43:29;25.40;99.90
53045;DHT22;38930;52.766;6.884;2023-09-07T09:45:55;25.40;99.90
53045;DHT22;38930;52.766;6.884;2023-09-07T09:48:22;25.50;99.90
53045;DHT22;38930;52.766;6.884;2023-09-07T09:50:49;25.50;99.90
53045;DHT22;38930;52.766;6.884;2023-09-07T09:53:19;25.60;99.90
53045;DHT22;38930;52.766;6.884;2023-09-07T09:55:46;25.70;99.90
53045;DHT22;38930;52.766;6.884;2023-09-07T09:58:13;25.70;99.90
53045;DHT22;38930;52.766;6.884;2023-09-07T10:00:44;25.80;99.90
53045;DHT22;38930;52.766;6.884;2023-09-07T10:03:14;25.70;99.90
53045;DHT22;38930;52.766;6.884;2023-09-07T10:05:43;25.80;99.90
53045;DHT22;38930;52.766;6.884;2023-09-07T10:08:13;25.90;99.90
53045;DHT22;38930;52.766;6.884;2023-09-07T10:10:41;26.00;99.90
53045;DHT22;38930;52.766;6.884;2023-09-07T10:13:07;26.10;99.90
53045;DHT22;38930;52.766;6.884;2023-09-07T10:15:33;26.10;99.90
53045;DHT22;38930;52.766;6.884;2023-09-07T10:18:06;26.30;99.90
53045;DHT22;38930;52.766;6.884;2023-09-07T10:20:57;26.40;99.90
53045;DHT22;38930;52.766;6.884;2023-09-07T10:23:38;26.50;99.90
53045;DHT22;38930;52.766;6.884;2023-09-07T10:26:05;26.50;99.90
53045;DHT22;38930;52.766;6.884;2023-09-07T10:28:31;26.60;99.90
53045;DHT22;38930;52.766;6.884;2023-09-07T10:31:04;26.70;99.90
53045;DHT22;38930;52.766;6.884;2023-09-07T10:33:31;26.80;99.90
53045;DHT22;38930;52.766;6.884;2023-09-07T10:35:57;26.70;99.90
53045;DHT22;38930;52.766;6.884;2023-09-07T10:38:23;26.90;99.90
53045;DHT22;38930;52.766;6.884;2023-09-07T10:40:59;26.90;99.90
53045;DHT22;38930;52.766;6.884;2023-09-07T10:43:33;27.00;99.90
53045;DHT22;38930;52.766;6.884;2023-09-07T10:46:00;27.10;99.90
53045;DHT22;38930;52.766;6.884;2023-09-07T10:48:29;27.10;99.90
53045;DHT22;38930;52.766;6.884;2023-09-07T10:50:55;27.30;99.90
53045;DHT22;38930;52.766;6.884;2023-09-07T10:53:33;27.30;99.90
53045;DHT22;38930;52.766;6.884;2023-09-07T10:56:02;27.40;99.90
53045;DHT22;38930;52.766;6.884;2023-09-07T10:58:38;27.40;99.90
53045;DHT22;38930;52.766;6.884;2023-09-07T11:01:05;27.50;99.90
53045;DHT22;38930;52.766;6.884;2023-09-07T11:03:31;27.60;99.90
53045;DHT22;38930;52.766;6.884;2023-09-07T11:06:04;27.60;99.90
53045;DHT22;38930;52.766;6.884;2023-09-07T11:08:30;27.70;99.90
53045;DHT22;38930;52.766;6.884;2023-09-07T11:10:56;27.80;99.90
53045;DHT22;38930;52.766;6.884;2023-09-07T11:13:25;27.90;99.90
53045;DHT22;38930;52.766;6.884;2023-09-07T11:15:55;27.90;99.90
53045;DHT22;38930;52.766;6.884;2023-09-07T11:18:22;27.80;99.90
53045;DHT22;38930;52.766;6.884;2023-09-07T11:20:49;27.90;99.90
53045;DHT22;38930;52.766;6.884;2023-09-07T11:23:15;27.90;99.90
53045;DHT22;38930;52.766;6.884;2023-09-07T11:25:41;28.00;99.90
53045;DHT22;38930;52.766;6.884;2023-09-07T11:28:08;28.10;99.90
53045;DHT22;38930;52.766;6.884;2023-09-07T11:30:34;28.20;99.90
53045;DHT22;38930;52.766;6.884;2023-09-07T11:33:05;28.30;99.90
53045;DHT22;38930;52.766;6.884;2023-09-07T11:35:31;28.30;99.90
53045;DHT22;38930;52.766;6.884;2023-09-07T11:38:02;28.40;99.90
53045;DHT22;38930;52.766;6.884;2023-09-07T11:40:30;28.40;99.90
53045;DHT22;38930;52.766;6.884;2023-09-07T11:42:55;28.50;99.90
53045;DHT22;38930;52.766;6.884;2023-09-07T11:45:21;28.50;99.90
53045;DHT22;38930;52.766;6.884;2023-09-07T11:47:47;28.60;99.90
53045;DHT22;38930;52.766;6.884;2023-09-07T11:50:12;28.60;99.90
53045;DHT22;38930;52.766;6.884;2023-09-07T11:52:38;28.50;99.90
53045;DHT22;38930;52.766;6.884;2023-09-07T11:55:04;28.60;99.90
53045;DHT22;38930;52.766;6.884;2023-09-07T11:57:30;28.70;99.90
53045;DHT22;38930;52.766;6.884;2023-09-07T11:59:56;28.70;99.90
53045;DHT22;38930;52.766;6.884;2023-09-07T12:02:22;28.70;99.90
53045;DHT22;38930;52.766;6.884;2023-09-07T12:04:48;28.80;99.90
53045;DHT22;38930;52.766;6.884;2023-09-07T12:07:14;28.90;99.90
53045;DHT22;38930;52.766;6.884;2023-09-07T12:09:40;29.00;99.90
53045;DHT22;38930;52.766;6.884;2023-09-07T12:12:06;29.10;99.90
53045;DHT22;38930;52.766;6.884;2023-09-07T12:14:32;29.10;99.90
53045;DHT22;38930;52.766;6.884;2023-09-07T12:16:58;29.20;99.90
53045;DHT22;38930;52.766;6.884;2023-09-07T12:19:24;29.20;99.90
53045;DHT22;38930;52.766;6.884;2023-09-07T12:21:51;29.20;99.90
53045;DHT22;38930;52.766;6.884;2023-09-07T12:24:17;29.10;99.90
53045;DHT22;38930;52.766;6.884;2023-09-07T12:26:42;29.20;99.90
53045;DHT22;38930;52.766;6.884;2023-09-07T12:29:08;29.20;99.90
53045;DHT22;38930;52.766;6.884;2023-09-07T12:31:34;29.20;99.90
53045;DHT22;38930;52.766;6.884;2023-09-07T12:33:59;29.30;99.90
53045;DHT22;38930;52.766;6.884;2023-09-07T12:36:25;29.30;99.90
53045;DHT22;38930;52.766;6.884;2023-09-07T12:38:55;29.30;99.90
53045;DHT22;38930;52.766;6.884;2023-09-07T12:41:23;29.30;99.90
53045;DHT22;38930;52.766;6.884;2023-09-07T12:43:48;29.30;99.90
53045;DHT22;38930;52.766;6.884;2023-09-07T12:46:14;29.40;99.90
53045;DHT22;38930;52.766;6.884;2023-09-07T12:48:40;29.40;99.90
53045;DHT22;38930;52.766;6.884;2023-09-07T12:51:05;29.50;99.90
53045;DHT22;38930;52.766;6.884;2023-09-07T12:53:31;29.60;99.90
53045;DHT22;38930;52.766;6.884;2023-09-07T12:55:57;29.60;99.90
53045;DHT22;38930;52.766;6.884;2023-09-07T12:58:22;29.70;99.90
53045;DHT22;38930;52.766;6.884;2023-09-07T13:00:48;29.70;99.90
53045;DHT22;38930;52.766;6.884;2023-09-07T13:03:16;29.70;99.90
53045;DHT22;38930;52.766;6.884;2023-09-07T13:05:42;29.70;99.90
53045;DHT22;38930;52.766;6.884;2023-09-07T13:08:08;29.70;99.90
53045;DHT22;38930;52.766;6.884;2023-09-07T13:10:33;29.70;99.90
53045;DHT22;38930;52.766;6.884;2023-09-07T13:12:59;29.70;99.90
53045;DHT22;38930;52.766;6.884;2023-09-07T13:15:25;29.70;99.90
53045;DHT22;38930;52.766;6.884;2023-09-07T13:17:51;29.70;99.90
53045;DHT22;38930;52.766;6.884;2023-09-07T13:20:16;29.80;99.90
53045;DHT22;38930;52.766;6.884;2023-09-07T13:22:42;29.80;99.90
53045;DHT22;38930;52.766;6.884;2023-09-07T13:25:08;29.70;99.90
53045;DHT22;38930;52.766;6.884;2023-09-07T13:27:33;29.70;99.90
53045;DHT22;38930;52.766;6.884;2023-09-07T13:30:00;29.80;99.90
53045;DHT22;38930;52.766;6.884;2023-09-07T13:32:27;29.80;99.90
53045;DHT22;38930;52.766;6.884;2023-09-07T13:34:53;29.90;99.90
53045;DHT22;38930;52.766;6.884;2023-09-07T13:37:18;29.90;99.90
53045;DHT22;38930;52.766;6.884;2023-09-07T13:39:44;29.80;99.90
53045;DHT22;38930;52.766;6.884;2023-09-07T13:42:10;29.80;99.90
53045;DHT22;38930;52.766;6.884;2023-09-07T13:44:35;29.80;99.90
53045;DHT22;38930;52.766;6.884;2023-09-07T13:47:01;29.80;99.90
53045;DHT22;38930;52.766;6.884;2023-09-07T13:49:27;29.90;99.90
53045;DHT22;38930;52.766;6.884;2023-09-07T13:51:52;29.80;99.40
53045;DHT22;38930;52.766;6.884;2023-09-07T13:54:18;29.80;99.60
53045;DHT22;38930;52.766;6.884;2023-09-07T13:56:43;29.80;99.90
53045;DHT22;38930;52.766;6.884;2023-09-07T13:59:10;29.80;99.90
53045;DHT22;38930;52.766;6.884;2023-09-07T14:01:37;29.90;99.90
53045;DHT22;38930;52.766;6.884;2023-09-07T14:04:03;29.90;99.90
53045;DHT22;38930;52.766;6.884;2023-09-07T14:06:29;29.80;99.90
53045;DHT22;38930;52.766;6.884;2023-09-07T14:08:54;29.80;99.90
53045;DHT22;38930;52.766;6.884;2023-09-07T14:11:20;29.80;99.90
53045;DHT22;38930;52.766;6.884;2023-09-07T14:13:47;29.70;99.90
53045;DHT22;38930;52.766;6.884;2023-09-07T14:16:15;29.70;99.90
53045;DHT22;38930;52.766;6.884;2023-09-07T14:18:40;29.70;99.90
53045;DHT22;38930;52.766;6.884;2023-09-07T14:21:06;29.70;99.90
53045;DHT22;38930;52.766;6.884;2023-09-07T14:23:31;29.70;99.90
53045;DHT22;38930;52.766;6.884;2023-09-07T14:25:57;29.70;99.90
53045;DHT22;38930;52.766;6.884;2023-09-07T14:28:24;29.70;99.90
53045;DHT22;38930;52.766;6.884;2023-09-07T14:30:49;29.70;99.90
53045;DHT22;38930;52.766;6.884;2023-09-07T14:33:16;29.70;99.90
53045;DHT22;38930;52.766;6.884;2023-09-07T14:35:42;29.60;99.90
53045;DHT22;38930;52.766;6.884;2023-09-07T14:38:07;29.70;99.90
53045;DHT22;38930;52.766;6.884;2023-09-07T14:40:33;29.70;99.90
53045;DHT22;38930;52.766;6.884;2023-09-07T14:42:59;29.60;99.90
53045;DHT22;38930;52.766;6.884;2023-09-07T14:45:24;29.60;99.90
53045;DHT22;38930;52.766;6.884;2023-09-07T14:47:51;29.60;99.90
53045;DHT22;38930;52.766;6.884;2023-09-07T14:50:17;29.60;99.90
53045;DHT22;38930;52.766;6.884;2023-09-07T14:52:42;29.60;99.90
53045;DHT22;38930;52.766;6.884;2023-09-07T14:55:13;29.60;99.90
53045;DHT22;38930;52.766;6.884;2023-09-07T14:57:39;29.70;99.90
53045;DHT22;38930;52.766;6.884;2023-09-07T15:00:06;29.70;99.90
53045;DHT22;38930;52.766;6.884;2023-09-07T15:02:31;29.70;99.90
53045;DHT22;38930;52.766;6.884;2023-09-07T15:04:57;29.70;99.90
53045;DHT22;38930;52.766;6.884;2023-09-07T15:07:22;29.70;99.90
53045;DHT22;38930;52.766;6.884;2023-09-07T15:09:51;29.60;99.90
53045;DHT22;38930;52.766;6.884;2023-09-07T15:12:16;29.60;99.90
53045;DHT22;38930;52.766;6.884;2023-09-07T15:14:42;29.60;99.90
53045;DHT22;38930;52.766;6.884;2023-09-07T15:17:10;29.60;99.90
53045;DHT22;38930;52.766;6.884;2023-09-07T15:19:36;29.60;99.90
53045;DHT22;38930;52.766;6.884;2023-09-07T15:22:01;29.50;99.40
53045;DHT22;38930;52.766;6.884;2023-09-07T15:24:27;29.50;99.90
53045;DHT22;38930;52.766;6.884;2023-09-07T15:26:52;29.60;99.90